sensor_id;sensor_type;location;lat;lon;timestamp;temperature;humidity
37378;DHT22;23248;48.120;14.854;2022-08-03T00:01:39;17.10;99.90
37378;DHT22;23248;48.120;14.854;2022-08-03T00:04:05;17.10;99.90
37378;DHT22;23248;48.120;14.854;2022-08-03T00:06:31;17.10;99.90
37378;DHT22;23248;48.120;14.854;2022-08-03T00:08:57;17.10;99.90
37378;DHT22;23248;48.120;14.854;2022-08-03T00:11:22;17.10;99.90
37378;DHT22;23248;48.120;14.854;2022-08-03T00:13:48;17.10;99.90
37378;DHT22;23248;48.120;14.854;2022-08-03T00:16:14;17.10;99.90
37378;DHT22;23248;48.120;14.854;2022-08-03T00:18:39;17.10;99.90
37378;DHT22;23248;48.120;14.854;2022-08-03T00:21:05;17.00;99.90
37378;DHT22;23248;48.120;14.854;2022-08-03T00:23:31;17.00;99.90
37378;DHT22;23248;48.120;14.854;2022-08-03T00:25:56;17.10;99.90
37378;DHT22;23248;48.120;14.854;2022-08-03T00:28:22;17.00;99.90
37378;DHT22;23248;48.120;14.854;2022-08-03T00:30:47;17.00;99.90
37378;DHT22;23248;48.120;14.854;2022-08-03T00:33:13;17.00;99.90
37378;DHT22;23248;48.120;14.854;2022-08-03T00:35:39;17.00;99.90
37378;DHT22;23248;48.120;14.854;2022-08-03T00:38:04;17.00;99.90
37378;DHT22;23248;48.120;14.854;2022-08-03T00:40:31;16.90;99.90
37378;DHT22;23248;48.120;14.854;2022-08-03T00:42:58;17.00;99.90
37378;DHT22;23248;48.120;14.854;2022-08-03T00:45:25;16.90;99.90
37378;DHT22;23248;48.120;14.854;2022-08-03T00:47:51;16.90;99.90
37378;DHT22;23248;48.120;14.854;2022-08-03T00:50:17;16.80;99.90
37378;DHT22;23248;48.120;14.854;2022-08-03T00:52:43;16.70;99.90
37378;DHT22;23248;48.120;14.854;2022-08-03T00:55:09;16.70;99.90
37378;DHT22;23248;48.120;14.854;2022-08-03T00:57:35;16.60;99.90
37378;DHT22;23248;48.120;14.854;2022-08-03T01:00:00;16.60;99.90
37378;DHT22;23248;48.120;14.854;2022-08-03T01:02:27;16.60;99.90
37378;DHT22;23248;48.120;14.854;2022-08-03T01:04:53;16.70;99.90
37378;DHT22;23248;48.120;14.854;2022-08-03T01:07:26;16.70;99.90
37378;DHT22;23248;48.120;14.854;2022-08-03T01:10:13;16.70;99.90
37378;DHT22;23248;48.120;14.854;2022-08-03T01:15:30;16.60;99.90
37378;DHT22;23248;48.120;14.854;2022-08-03T01:18:04;16.50;99.90
37378;DHT22;23248;48.120;14.854;2022-08-03T01:20:31;16.50;99.90
37378;DHT22;23248;48.120;14.854;2022-08-03T01:31:00;16.30;99.90
37378;DHT22;23248;48.120;14.854;2022-08-03T01:33:31;16.20;99.90
37378;DHT22;23248;48.120;14.854;2022-08-03T01:35:59;16.20;99.90
37378;DHT22;23248;48.120;14.854;2022-08-03T01:38:28;16.20;99.90
37378;DHT22;23248;48.120;14.854;2022-08-03T01:40:56;16.20;99.90
37378;DHT22;23248;48.120;14.854;2022-08-03T01:43:23;16.20;99.90
37378;DHT22;23248;48.120;14.854;2022-08-03T01:45:49;16.30;99.90
37378;DHT22;23248;48.120;14.854;2022-08-03T01:48:16;16.20;99.90
37378;DHT22;23248;48.120;14.854;2022-08-03T01:50:41;16.20;99.90
37378;DHT22;23248;48.120;14.854;2022-08-03T01:53:08;16.10;99.90
37378;DHT22;23248;48.120;14.854;2022-08-03T01:55:33;16.10;99.90
37378;DHT22;23248;48.120;14.854;2022-08-03T01:58:01;16.10;99.90
37378;DHT22;23248;48.120;14.854;2022-08-03T02:00:27;16.10;99.90
37378;DHT22;23248;48.120;14.854;2022-08-03T02:02:53;16.00;99.90
37378;DHT22;23248;48.120;14.854;2022-08-03T02:05:19;16.00;99.90
37378;DHT22;23248;48.120;14.854;2022-08-03T02:07:45;16.00;99.90
37378;DHT22;23248;48.120;14.854;2022-08-03T02:10:12;15.90;99.90
37378;DHT22;23248;48.120;14.854;2022-08-03T02:12:38;15.90;99.90
37378;DHT22;23248;48.120;14.854;2022-08-03T02:15:04;15.90;99.90
37378;DHT22;23248;48.120;14.854;2022-08-03T02:17:31;15.90;99.90
37378;DHT22;23248;48.120;14.854;2022-08-03T02:19:57;15.80;99.90
37378;DHT22;23248;48.120;14.854;2022-08-03T02:22:23;15.80;99.90
37378;DHT22;23248;48.120;14.854;2022-08-03T02:24:49;15.80;99.90
37378;DHT22;23248;48.120;14.854;2022-08-03T02:27:22;15.70;99.90
37378;DHT22;23248;48.120;14.854;2022-08-03T02:29:50;15.80;99.90
37378;DHT22;23248;48.120;14.854;2022-08-03T02:32:19;15.80;99.90
37378;DHT22;23248;48.120;14.854;2022-08-03T02:34:46;15.80;99.90
37378;DHT22;23248;48.120;14.854;2022-08-03T02:37:13;15.90;99.90
37378;DHT22;23248;48.120;14.854;2022-08-03T02:39:39;15.90;99.90
37378;DHT22;23248;48.120;14.854;2022-08-03T02:42:06;15.90;99.90
37378;DHT22;23248;48.120;14.854;2022-08-03T02:44:32;15.90;99.90
37378;DHT22;23248;48.120;14.854;2022-08-03T02:47:00;15.90;99.90
37378;DHT22;23248;48.120;14.854;2022-08-03T02:49:27;15.90;99.90
37378;DHT22;23248;48.120;14.854;2022-08-03T02:51:54;15.80;99.90
37378;DHT22;23248;48.120;14.854;2022-08-03T02:54:21;15.80;99.90
37378;DHT22;23248;48.120;14.854;2022-08-03T02:56:47;15.90;99.90
37378;DHT22;23248;48.120;14.854;2022-08-03T02:59:13;15.90;99.90
37378;DHT22;23248;48.120;14.854;2022-08-03T03:01:39;15.90;99.90
37378;DHT22;23248;48.120;14.854;2022-08-03T03:04:04;15.80;99.90
37378;DHT22;23248;48.120;14.854;2022-08-03T03:06:31;15.80;99.90
37378;DHT22;23248;48.120;14.854;2022-08-03T03:08:57;15.80;99.90
37378;DHT22;23248;48.120;14.854;2022-08-03T03:11:24;15.80;99.90
37378;DHT22;23248;48.120;14.854;2022-08-03T03:13:49;15.70;99.90
37378;DHT22;23248;48.120;14.854;2022-08-03T03:16:15;15.70;99.90
37378;DHT22;23248;48.120;14.854;2022-08-03T03:18:43;15.70;99.90
37378;DHT22;23248;48.120;14.854;2022-08-03T03:21:09;15.70;99.90
37378;DHT22;23248;48.120;14.854;2022-08-03T03:23:35;15.60;99.90
37378;DHT22;23248;48.120;14.854;2022-08-03T03:26:01;15.60;99.90
37378;DHT22;23248;48.120;14.854;2022-08-03T03:28:27;15.60;99.90
37378;DHT22;23248;48.120;14.854;2022-08-03T03:30:53;15.60;99.90
37378;DHT22;23248;48.120;14.854;2022-08-03T03:33:19;15.60;99.90
37378;DHT22;23248;48.120;14.854;2022-08-03T03:35:45;15.60;99.90
37378;DHT22;23248;48.120;14.854;2022-08-03T03:38:11;15.60;99.90
37378;DHT22;23248;48.120;14.854;2022-08-03T03:40:37;15.70;99.90
37378;DHT22;23248;48.120;14.854;2022-08-03T03:43:06;15.70;99.90
37378;DHT22;23248;48.120;14.854;2022-08-03T03:45:33;15.70;99.90
37378;DHT22;23248;48.120;14.854;2022-08-03T03:47:59;15.60;99.90
37378;DHT22;23248;48.120;14.854;2022-08-03T03:50:25;15.60;99.90
37378;DHT22;23248;48.120;14.854;2022-08-03T03:52:51;15.60;99.90
37378;DHT22;23248;48.120;14.854;2022-08-03T03:55:17;15.60;99.90
37378;DHT22;23248;48.120;14.854;2022-08-03T03:57:43;15.70;99.90
37378;DHT22;23248;48.120;14.854;2022-08-03T04:00:09;15.70;99.90
37378;DHT22;23248;48.120;14.854;2022-08-03T04:02:35;15.70;99.90
37378;DHT22;23248;48.120;14.854;2022-08-03T04:05:00;15.70;99.90
37378;DHT22;23248;48.120;14.854;2022-08-03T04:08:05;15.70;99.90
37378;DHT22;23248;48.120;14.854;2022-08-03T04:16:13;15.70;99.90
37378;DHT22;23248;48.120;14.854;2022-08-03T04:18:40;15.70;99.90
37378;DHT22;23248;48.120;14.854;2022-08-03T04:21:10;15.70;99.90
37378;DHT22;23248;48.120;14.854;2022-08-03T04:23:39;15.60;99.90
37378;DHT22;23248;48.120;14.854;2022-08-03T04:26:06;15.60;99.90
37378;DHT22;23248;48.120;14.854;2022-08-03T04:28:34;15.70;99.90
37378;DHT22;23248;48.120;14.854;2022-08-03T04:31:00;15.70;99.90
37378;DHT22;23248;48.120;14.854;2022-08-03T04:33:28;15.80;99.90
37378;DHT22;23248;48.120;14.854;2022-08-03T04:35:57;15.80;99.90
37378;DHT22;23248;48.120;14.854;2022-08-03T04:38:23;15.80;99.90
37378;DHT22;23248;48.120;14.854;2022-08-03T04:40:49;15.80;99.90
37378;DHT22;23248;48.120;14.854;2022-08-03T04:43:15;15.80;99.90
37378;DHT22;23248;48.120;14.854;2022-08-03T04:45:42;15.80;99.90
37378;DHT22;23248;48.120;14.854;2022-08-03T04:48:11;15.80;99.90
37378;DHT22;23248;48.120;14.854;2022-08-03T04:50:38;15.90;99.90
37378;DHT22;23248;48.120;14.854;2022-08-03T04:53:05;15.90;99.90
37378;DHT22;23248;48.120;14.854;2022-08-03T04:55:31;15.90;99.90
37378;DHT22;23248;48.120;14.854;2022-08-03T04:57:57;16.00;99.90
37378;DHT22;23248;48.120;14.854;2022-08-03T05:00:23;16.00;99.90
37378;DHT22;23248;48.120;14.854;2022-08-03T05:02:49;16.00;99.90
37378;DHT22;23248;48.120;14.854;2022-08-03T05:05:16;16.10;99.90
37378;DHT22;23248;48.120;14.854;2022-08-03T05:07:42;16.20;99.90
37378;DHT22;23248;48.120;14.854;2022-08-03T05:10:09;16.30;99.90
37378;DHT22;23248;48.120;14.854;2022-08-03T05:12:35;16.30;99.90
37378;DHT22;23248;48.120;14.854;2022-08-03T05:15:01;16.40;99.90
37378;DHT22;23248;48.120;14.854;2022-08-03T05:17:27;16.50;99.90
37378;DHT22;23248;48.120;14.854;2022-08-03T05:19:53;16.50;99.90
37378;DHT22;23248;48.120;14.854;2022-08-03T05:22:19;16.70;99.90
37378;DHT22;23248;48.120;14.854;2022-08-03T05:24:45;16.70;99.90
37378;DHT22;23248;48.120;14.854;2022-08-03T05:27:11;16.80;99.90
37378;DHT22;23248;48.120;14.854;2022-08-03T05:29:45;16.80;99.90
37378;DHT22;23248;48.120;14.854;2022-08-03T05:32:11;16.90;99.90
37378;DHT22;23248;48.120;14.854;2022-08-03T05:34:37;17.00;99.90
37378;DHT22;23248;48.120;14.854;2022-08-03T05:37:03;17.10;99.90
37378;DHT22;23248;48.120;14.854;2022-08-03T05:39:28;17.10;99.90
37378;DHT22;23248;48.120;14.854;2022-08-03T05:41:54;17.20;99.90
37378;DHT22;23248;48.120;14.854;2022-08-03T05:44:20;17.30;99.90
37378;DHT22;23248;48.120;14.854;2022-08-03T05:46:46;17.40;99.90
37378;DHT22;23248;48.120;14.854;2022-08-03T05:49:12;17.60;99.90
37378;DHT22;23248;48.120;14.854;2022-08-03T05:51:37;18.00;99.90
37378;DHT22;23248;48.120;14.854;2022-08-03T05:54:03;18.50;99.90
37378;DHT22;23248;48.120;14.854;2022-08-03T05:56:28;18.90;99.90
37378;DHT22;23248;48.120;14.854;2022-08-03T05:58:54;19.30;99.90
37378;DHT22;23248;48.120;14.854;2022-08-03T06:01:20;19.60;99.90
37378;DHT22;23248;48.120;14.854;2022-08-03T06:03:49;19.70;99.90
37378;DHT22;23248;48.120;14.854;2022-08-03T06:06:14;19.80;99.90
37378;DHT22;23248;48.120;14.854;2022-08-03T06:08:40;19.90;99.90
37378;DHT22;23248;48.120;14.854;2022-08-03T06:11:07;19.90;99.90
37378;DHT22;23248;48.120;14.854;2022-08-03T06:13:34;19.90;99.90
37378;DHT22;23248;48.120;14.854;2022-08-03T06:16:00;19.90;99.90
37378;DHT22;23248;48.120;14.854;2022-08-03T06:18:25;20.00;99.90
37378;DHT22;23248;48.120;14.854;2022-08-03T06:20:51;20.00;99.90
37378;DHT22;23248;48.120;14.854;2022-08-03T06:23:17;20.00;99.90
37378;DHT22;23248;48.120;14.854;2022-08-03T06:25:42;20.00;99.90
37378;DHT22;23248;48.120;14.854;2022-08-03T06:28:08;20.00;99.90
37378;DHT22;23248;48.120;14.854;2022-08-03T06:30:34;20.10;99.90
37378;DHT22;23248;48.120;14.854;2022-08-03T06:32:59;20.20;99.90
37378;DHT22;23248;48.120;14.854;2022-08-03T06:35:25;20.30;99.90
37378;DHT22;23248;48.120;14.854;2022-08-03T06:37:52;20.40;99.90
37378;DHT22;23248;48.120;14.854;2022-08-03T06:40:21;20.50;99.90
37378;DHT22;23248;48.120;14.854;2022-08-03T06:42:56;20.60;99.90
37378;DHT22;23248;48.120;14.854;2022-08-03T06:45:22;20.80;99.90
37378;DHT22;23248;48.120;14.854;2022-08-03T06:47:58;21.00;99.90
37378;DHT22;23248;48.120;14.854;2022-08-03T06:50:23;21.10;99.90
37378;DHT22;23248;48.120;14.854;2022-08-03T06:52:49;21.30;99.90
37378;DHT22;23248;48.120;14.854;2022-08-03T06:55:14;21.40;99.90
37378;DHT22;23248;48.120;14.854;2022-08-03T06:57:40;21.60;99.90
37378;DHT22;23248;48.120;14.854;2022-08-03T07:00:06;21.60;99.90
37378;DHT22;23248;48.120;14.854;2022-08-03T07:02:33;21.70;99.90
37378;DHT22;23248;48.120;14.854;2022-08-03T07:04:59;21.80;99.90
37378;DHT22;23248;48.120;14.854;2022-08-03T07:07:25;22.00;99.90
37378;DHT22;23248;48.120;14.854;2022-08-03T07:09:51;22.30;99.90
37378;DHT22;23248;48.120;14.854;2022-08-03T07:12:16;22.40;99.90
37378;DHT22;23248;48.120;14.854;2022-08-03T07:14:42;22.60;99.90
37378;DHT22;23248;48.120;14.854;2022-08-03T07:17:08;22.70;99.90
37378;DHT22;23248;48.120;14.854;2022-08-03T07:19:34;22.80;99.90
37378;DHT22;23248;48.120;14.854;2022-08-03T07:21:59;22.90;99.90
37378;DHT22;23248;48.120;14.854;2022-08-03T07:24:25;23.00;99.90
37378;DHT22;23248;48.120;14.854;2022-08-03T07:26:51;23.10;99.90
37378;DHT22;23248;48.120;14.854;2022-08-03T07:29:16;23.20;99.90
37378;DHT22;23248;48.120;14.854;2022-08-03T07:31:42;23.40;99.90
37378;DHT22;23248;48.120;14.854;2022-08-03T07:34:07;23.50;99.90
37378;DHT22;23248;48.120;14.854;2022-08-03T07:36:33;23.70;99.90
37378;DHT22;23248;48.120;14.854;2022-08-03T07:38:59;23.90;99.90
37378;DHT22;23248;48.120;14.854;2022-08-03T07:41:24;24.00;99.90
37378;DHT22;23248;48.120;14.854;2022-08-03T07:43:50;24.20;99.90
37378;DHT22;23248;48.120;14.854;2022-08-03T07:46:16;24.30;99.90
37378;DHT22;23248;48.120;14.854;2022-08-03T07:48:41;24.40;99.90
37378;DHT22;23248;48.120;14.854;2022-08-03T07:51:07;24.40;99.90
37378;DHT22;23248;48.120;14.854;2022-08-03T07:53:33;24.50;99.90
37378;DHT22;23248;48.120;14.854;2022-08-03T07:55:58;24.60;99.90
37378;DHT22;23248;48.120;14.854;2022-08-03T07:58:24;24.70;99.90
37378;DHT22;23248;48.120;14.854;2022-08-03T08:00:51;24.80;99.90
37378;DHT22;23248;48.120;14.854;2022-08-03T08:03:17;25.00;99.90
37378;DHT22;23248;48.120;14.854;2022-08-03T08:05:43;25.00;99.90
37378;DHT22;23248;48.120;14.854;2022-08-03T08:08:09;25.00;99.90
37378;DHT22;23248;48.120;14.854;2022-08-03T08:10:35;25.10;99.90
37378;DHT22;23248;48.120;14.854;2022-08-03T08:13:02;25.10;99.90
37378;DHT22;23248;48.120;14.854;2022-08-03T08:15:27;25.10;99.90
37378;DHT22;23248;48.120;14.854;2022-08-03T08:17:57;25.20;99.90
37378;DHT22;23248;48.120;14.854;2022-08-03T08:20:25;25.40;99.90
37378;DHT22;23248;48.120;14.854;2022-08-03T08:22:54;25.50;99.90
37378;DHT22;23248;48.120;14.854;2022-08-03T08:25:23;25.60;99.90
37378;DHT22;23248;48.120;14.854;2022-08-03T08:27:49;25.50;99.90
37378;DHT22;23248;48.120;14.854;2022-08-03T08:30:17;25.50;99.90
37378;DHT22;23248;48.120;14.854;2022-08-03T08:32:44;25.70;99.90
37378;DHT22;23248;48.120;14.854;2022-08-03T08:35:10;25.90;99.90
37378;DHT22;23248;48.120;14.854;2022-08-03T08:37:36;26.00;99.90
37378;DHT22;23248;48.120;14.854;2022-08-03T08:40:02;26.20;99.90
37378;DHT22;23248;48.120;14.854;2022-08-03T08:42:28;26.40;99.90
37378;DHT22;23248;48.120;14.854;2022-08-03T08:44:55;26.40;99.90
37378;DHT22;23248;48.120;14.854;2022-08-03T08:47:22;26.60;99.90
37378;DHT22;23248;48.120;14.854;2022-08-03T08:49:49;26.80;99.90
37378;DHT22;23248;48.120;14.854;2022-08-03T08:52:16;26.80;99.90
37378;DHT22;23248;48.120;14.854;2022-08-03T08:54:43;26.90;99.90
37378;DHT22;23248;48.120;14.854;2022-08-03T08:57:09;26.80;99.90
37378;DHT22;23248;48.120;14.854;2022-08-03T08:59:35;26.80;99.90
37378;DHT22;23248;48.120;14.854;2022-08-03T09:02:01;26.90;99.90
37378;DHT22;23248;48.120;14.854;2022-08-03T09:04:28;26.90;99.90
37378;DHT22;23248;48.120;14.854;2022-08-03T09:06:53;27.00;99.90
37378;DHT22;23248;48.120;14.854;2022-08-03T09:09:19;27.00;99.90
37378;DHT22;23248;48.120;14.854;2022-08-03T09:11:46;27.00;99.90
37378;DHT22;23248;48.120;14.854;2022-08-03T09:14:12;27.10;99.90
37378;DHT22;23248;48.120;14.854;2022-08-03T09:16:37;27.20;99.90
37378;DHT22;23248;48.120;14.854;2022-08-03T09:19:19;27.30;99.90
37378;DHT22;23248;48.120;14.854;2022-08-03T09:21:44;27.50;99.90
37378;DHT22;23248;48.120;14.854;2022-08-03T09:24:10;27.60;99.90
37378;DHT22;23248;48.120;14.854;2022-08-03T09:26:36;27.90;99.90
37378;DHT22;23248;48.120;14.854;2022-08-03T09:29:06;28.00;99.90
37378;DHT22;23248;48.120;14.854;2022-08-03T09:31:33;28.00;99.90
37378;DHT22;23248;48.120;14.854;2022-08-03T09:33:59;27.90;99.90
37378;DHT22;23248;48.120;14.854;2022-08-03T09:36:44;28.00;99.90
37378;DHT22;23248;48.120;14.854;2022-08-03T09:39:16;28.10;99.90
37378;DHT22;23248;48.120;14.854;2022-08-03T09:41:43;28.20;99.90
37378;DHT22;23248;48.120;14.854;2022-08-03T09:44:09;28.30;99.90
37378;DHT22;23248;48.120;14.854;2022-08-03T09:46:50;28.30;99.90
37378;DHT22;23248;48.120;14.854;2022-08-03T09:49:16;28.30;99.90
37378;DHT22;23248;48.120;14.854;2022-08-03T09:51:42;28.40;99.90
37378;DHT22;23248;48.120;14.854;2022-08-03T09:54:08;28.60;99.90
37378;DHT22;23248;48.120;14.854;2022-08-03T09:56:40;28.70;99.90
37378;DHT22;23248;48.120;14.854;2022-08-03T09:59:06;28.80;99.90
37378;DHT22;23248;48.120;14.854;2022-08-03T10:01:32;28.80;99.90
37378;DHT22;23248;48.120;14.854;2022-08-03T10:04:01;28.90;99.90
37378;DHT22;23248;48.120;14.854;2022-08-03T10:06:27;29.00;99.90
37378;DHT22;23248;48.120;14.854;2022-08-03T10:09:06;29.00;99.90
37378;DHT22;23248;48.120;14.854;2022-08-03T10:11:32;29.10;99.90
37378;DHT22;23248;48.120;14.854;2022-08-03T10:14:01;29.30;99.90
37378;DHT22;23248;48.120;14.854;2022-08-03T10:16:29;29.60;99.10
37378;DHT22;23248;48.120;14.854;2022-08-03T10:18:57;29.60;98.70
37378;DHT22;23248;48.120;14.854;2022-08-03T10:21:23;29.70;98.70
37378;DHT22;23248;48.120;14.854;2022-08-03T10:23:48;29.80;98.20
37378;DHT22;23248;48.120;14.854;2022-08-03T10:26:15;29.90;96.80
37378;DHT22;23248;48.120;14.854;2022-08-03T10:28:45;29.90;96.50
37378;DHT22;23248;48.120;14.854;2022-08-03T10:31:12;29.90;95.00
37378;DHT22;23248;48.120;14.854;2022-08-03T10:33:41;29.90;95.50
37378;DHT22;23248;48.120;14.854;2022-08-03T10:36:07;29.90;94.70
37378;DHT22;23248;48.120;14.854;2022-08-03T10:38:37;30.10;94.40
37378;DHT22;23248;48.120;14.854;2022-08-03T10:41:05;30.30;94.60
37378;DHT22;23248;48.120;14.854;2022-08-03T10:43:35;30.40;93.10
37378;DHT22;23248;48.120;14.854;2022-08-03T10:46:06;30.60;93.00
37378;DHT22;23248;48.120;14.854;2022-08-03T10:48:32;30.70;91.80
37378;DHT22;23248;48.120;14.854;2022-08-03T10:50:59;30.80;91.70
37378;DHT22;23248;48.120;14.854;2022-08-03T10:53:35;30.70;90.60
37378;DHT22;23248;48.120;14.854;2022-08-03T10:56:01;30.80;90.40
37378;DHT22;23248;48.120;14.854;2022-08-03T10:58:45;30.80;89.80
37378;DHT22;23248;48.120;14.854;2022-08-03T11:01:11;30.70;90.30
37378;DHT22;23248;48.120;14.854;2022-08-03T11:06:22;31.20;88.50
37378;DHT22;23248;48.120;14.854;2022-08-03T11:08:49;31.20;88.60
37378;DHT22;23248;48.120;14.854;2022-08-03T11:11:35;31.20;86.60
37378;DHT22;23248;48.120;14.854;2022-08-03T11:14:05;31.20;89.40
37378;DHT22;23248;48.120;14.854;2022-08-03T11:16:33;31.20;86.40
37378;DHT22;23248;48.120;14.854;2022-08-03T11:19:00;31.30;87.00
37378;DHT22;23248;48.120;14.854;2022-08-03T11:24:10;31.20;86.30
37378;DHT22;23248;48.120;14.854;2022-08-03T11:35:06;31.80;82.20
37378;DHT22;23248;48.120;14.854;2022-08-03T11:37:31;31.80;80.90
37378;DHT22;23248;48.120;14.854;2022-08-03T11:39:57;31.80;81.60
37378;DHT22;23248;48.120;14.854;2022-08-03T11:44:48;31.60;81.00
37378;DHT22;23248;48.120;14.854;2022-08-03T11:47:14;31.70;80.80
37378;DHT22;23248;48.120;14.854;2022-08-03T11:49:48;31.90;80.00
37378;DHT22;23248;48.120;14.854;2022-08-03T11:52:17;32.10;80.10
37378;DHT22;23248;48.120;14.854;2022-08-03T11:54:43;32.10;80.40
37378;DHT22;23248;48.120;14.854;2022-08-03T11:57:09;32.20;79.00
37378;DHT22;23248;48.120;14.854;2022-08-03T11:59:36;32.30;78.00
37378;DHT22;23248;48.120;14.854;2022-08-03T12:02:08;32.50;78.30
37378;DHT22;23248;48.120;14.854;2022-08-03T12:04:49;32.60;76.60
37378;DHT22;23248;48.120;14.854;2022-08-03T12:07:15;32.70;76.80
37378;DHT22;23248;48.120;14.854;2022-08-03T12:09:42;32.90;75.40
37378;DHT22;23248;48.120;14.854;2022-08-03T12:12:08;32.80;76.90
37378;DHT22;23248;48.120;14.854;2022-08-03T12:14:33;32.70;75.80
37378;DHT22;23248;48.120;14.854;2022-08-03T12:16:59;32.70;76.40
37378;DHT22;23248;48.120;14.854;2022-08-03T12:19:25;32.70;74.30
37378;DHT22;23248;48.120;14.854;2022-08-03T12:21:50;32.80;73.50
37378;DHT22;23248;48.120;14.854;2022-08-03T12:24:16;32.80;73.80
37378;DHT22;23248;48.120;14.854;2022-08-03T12:26:46;32.90;75.40
37378;DHT22;23248;48.120;14.854;2022-08-03T12:29:17;32.90;75.30
37378;DHT22;23248;48.120;14.854;2022-08-03T12:31:43;33.10;75.10
37378;DHT22;23248;48.120;14.854;2022-08-03T12:34:09;33.30;74.40
37378;DHT22;23248;48.120;14.854;2022-08-03T12:36:35;33.10;71.20
37378;DHT22;23248;48.120;14.854;2022-08-03T12:39:05;33.20;74.10
37378;DHT22;23248;48.120;14.854;2022-08-03T12:41:36;33.10;72.00
37378;DHT22;23248;48.120;14.854;2022-08-03T12:44:02;33.10;71.20
37378;DHT22;23248;48.120;14.854;2022-08-03T12:46:29;33.10;70.60
37378;DHT22;23248;48.120;14.854;2022-08-03T12:51:27;33.40;71.80
37378;DHT22;23248;48.120;14.854;2022-08-03T12:53:54;33.50;71.00
37378;DHT22;23248;48.120;14.854;2022-08-03T12:56:20;33.60;71.00
37378;DHT22;23248;48.120;14.854;2022-08-03T12:58:45;33.80;70.00
37378;DHT22;23248;48.120;14.854;2022-08-03T13:01:12;33.90;68.90
37378;DHT22;23248;48.120;14.854;2022-08-03T13:03:38;33.90;70.50
37378;DHT22;23248;48.120;14.854;2022-08-03T13:06:09;34.00;68.00
37378;DHT22;23248;48.120;14.854;2022-08-03T13:08:35;34.00;67.80
37378;DHT22;23248;48.120;14.854;2022-08-03T13:11:16;34.00;68.10
37378;DHT22;23248;48.120;14.854;2022-08-03T13:13:41;34.10;66.50
37378;DHT22;23248;48.120;14.854;2022-08-03T13:16:07;34.20;68.00
37378;DHT22;23248;48.120;14.854;2022-08-03T13:18:33;34.10;67.50
37378;DHT22;23248;48.120;14.854;2022-08-03T13:20:58;34.30;65.10
37378;DHT22;23248;48.120;14.854;2022-08-03T13:23:24;34.30;64.70
37378;DHT22;23248;48.120;14.854;2022-08-03T13:25:50;34.40;65.10
37378;DHT22;23248;48.120;14.854;2022-08-03T13:28:15;34.70;64.40
37378;DHT22;23248;48.120;14.854;2022-08-03T13:30:41;34.80;63.20
37378;DHT22;23248;48.120;14.854;2022-08-03T13:33:07;34.80;64.00
37378;DHT22;23248;48.120;14.854;2022-08-03T13:35:32;34.90;63.10
37378;DHT22;23248;48.120;14.854;2022-08-03T13:37:58;34.80;62.80
37378;DHT22;23248;48.120;14.854;2022-08-03T13:40:24;34.80;63.30
37378;DHT22;23248;48.120;14.854;2022-08-03T13:42:49;34.80;61.70
37378;DHT22;23248;48.120;14.854;2022-08-03T13:45:15;34.70;62.60
37378;DHT22;23248;48.120;14.854;2022-08-03T13:47:40;34.70;61.80
37378;DHT22;23248;48.120;14.854;2022-08-03T13:50:06;34.90;62.40
37378;DHT22;23248;48.120;14.854;2022-08-03T13:52:33;34.90;61.20
37378;DHT22;23248;48.120;14.854;2022-08-03T13:55:00;34.60;60.30
37378;DHT22;23248;48.120;14.854;2022-08-03T13:57:26;34.60;60.30
37378;DHT22;23248;48.120;14.854;2022-08-03T13:59:51;34.80;62.30
37378;DHT22;23248;48.120;14.854;2022-08-03T14:02:17;34.80;61.20
37378;DHT22;23248;48.120;14.854;2022-08-03T14:04:43;35.00;61.30
37378;DHT22;23248;48.120;14.854;2022-08-03T14:07:09;35.20;60.40
37378;DHT22;23248;48.120;14.854;2022-08-03T14:09:34;35.50;61.10
37378;DHT22;23248;48.120;14.854;2022-08-03T14:12:00;35.80;60.20
37378;DHT22;23248;48.120;14.854;2022-08-03T14:14:26;35.60;59.20
37378;DHT22;23248;48.120;14.854;2022-08-03T14:16:51;35.30;59.90
37378;DHT22;23248;48.120;14.854;2022-08-03T14:19:17;35.20;58.10
37378;DHT22;23248;48.120;14.854;2022-08-03T14:21:43;35.30;59.30
37378;DHT22;23248;48.120;14.854;2022-08-03T14:24:08;35.20;58.50
37378;DHT22;23248;48.120;14.854;2022-08-03T14:26:34;35.20;57.20
37378;DHT22;23248;48.120;14.854;2022-08-03T14:28:59;35.30;57.40
37378;DHT22;23248;48.120;14.854;2022-08-03T14:31:25;35.20;57.60
37378;DHT22;23248;48.120;14.854;2022-08-03T14:33:51;35.00;58.20
37378;DHT22;23248;48.120;14.854;2022-08-03T14:36:16;35.10;57.60
37378;DHT22;23248;48.120;14.854;2022-08-03T14:38:42;35.20;56.70
37378;DHT22;23248;48.120;14.854;2022-08-03T14:41:07;35.10;56.10
37378;DHT22;23248;48.120;14.854;2022-08-03T14:43:33;35.20;55.50
37378;DHT22;23248;48.120;14.854;2022-08-03T14:45:58;35.40;56.20
37378;DHT22;23248;48.120;14.854;2022-08-03T14:48:24;35.40;56.20
37378;DHT22;23248;48.120;14.854;2022-08-03T14:50:51;35.60;55.80
37378;DHT22;23248;48.120;14.854;2022-08-03T14:53:17;35.50;54.50
37378;DHT22;23248;48.120;14.854;2022-08-03T14:55:43;35.30;53.90
37378;DHT22;23248;48.120;14.854;2022-08-03T14:58:09;35.20;53.50
37378;DHT22;23248;48.120;14.854;2022-08-03T15:00:34;35.30;53.30
37378;DHT22;23248;48.120;14.854;2022-08-03T15:03:00;35.20;53.80
37378;DHT22;23248;48.120;14.854;2022-08-03T15:05:26;35.30;54.30
37378;DHT22;23248;48.120;14.854;2022-08-03T15:07:51;35.10;52.90
37378;DHT22;23248;48.120;14.854;2022-08-03T15:10:17;35.20;53.90
37378;DHT22;23248;48.120;14.854;2022-08-03T15:12:43;35.30;53.70
37378;DHT22;23248;48.120;14.854;2022-08-03T15:15:08;35.20;54.00
37378;DHT22;23248;48.120;14.854;2022-08-03T15:17:34;34.90;54.10
37378;DHT22;23248;48.120;14.854;2022-08-03T15:20:00;34.90;53.50
37378;DHT22;23248;48.120;14.854;2022-08-03T15:22:25;34.80;54.00
37378;DHT22;23248;48.120;14.854;2022-08-03T15:24:51;34.80;53.30
37378;DHT22;23248;48.120;14.854;2022-08-03T15:27:16;35.00;53.50
37378;DHT22;23248;48.120;14.854;2022-08-03T15:29:42;35.30;54.10
37378;DHT22;23248;48.120;14.854;2022-08-03T15:32:08;35.30;53.00
37378;DHT22;23248;48.120;14.854;2022-08-03T15:34:33;35.20;52.80
37378;DHT22;23248;48.120;14.854;2022-08-03T15:36:59;35.20;52.60
37378;DHT22;23248;48.120;14.854;2022-08-03T15:39:24;35.30;52.80
37378;DHT22;23248;48.120;14.854;2022-08-03T15:41:50;35.20;52.80
37378;DHT22;23248;48.120;14.854;2022-08-03T15:44:19;35.10;51.80
37378;DHT22;23248;48.120;14.854;2022-08-03T15:46:44;35.00;52.00
37378;DHT22;23248;48.120;14.854;2022-08-03T15:49:10;35.00;51.80